LOWW

Vienna International/Schwechat

Airport
ICAO code
LOWW
IATA Code
VIE
Summary
ICAO Region
EUR
ICAO Territory
Location

Schwechat, Vienna

Serving
Vienna
Elevation
600 ft
Coordinates
48° 6' 37" N , 16° 34' 11" E
KCC
Dfb
Metar
Observation
LOWW 152120Z 33003KT CAVOK 23/15 Q1008 NOSIG
Station
Wien / Schwechat-Flughafen
Date/Time
2022-08-15 21:20:00
Wind direction
330°
Wind speed
03 kts
Lowest cloud amount
clouds and visibility OK
Temperature
23°C
Dew point
15°C
Humidity
60%
QNH
1008 hPa
Weather condition
n/a

International airport serving Vienna, capital of Austria.

Climatology

Humid Continental climate (Köppen climate classification Dfb)

Runways

Designator Length Width Surface Rops
11/29 3500 45 ASP Yes/Yes
16/34 3600 45 ASP Yes/Yes

Airport map

Aerial View

Airport accidents

SKYbrary Partners:

Safety knowledge contributed by: